createdAt,value
2022-10-15T00:01:15.971Z,4.93
2022-10-15T00:03:44.146Z,4.33
2022-10-15T00:06:16.246Z,2.33
2022-10-15T00:08:43.200Z,3.50
2022-10-15T00:11:21.478Z,3.00
2022-10-15T00:13:48.691Z,4.25
2022-10-15T00:16:18.566Z,3.50
2022-10-15T00:18:45.017Z,4.30
2022-10-15T00:21:13.160Z,3.72
2022-10-15T00:23:39.670Z,2.10
2022-10-15T00:26:14.610Z,6.05
2022-10-15T00:28:42.013Z,3.07
2022-10-15T00:31:11.269Z,5.00
2022-10-15T00:33:38.302Z,10.27
2022-10-15T00:36:08.104Z,10.00
2022-10-15T00:38:35.481Z,12.27
2022-10-15T00:41:02.550Z,2.90
2022-10-15T00:43:41.136Z,2.78
2022-10-15T00:46:17.069Z,3.03
2022-10-15T00:48:46.461Z,2.55
2022-10-15T00:51:12.848Z,4.93
2022-10-15T00:53:39.407Z,3.90
2022-10-15T00:56:06.381Z,5.68
2022-10-15T00:58:34.525Z,3.83
2022-10-15T01:01:01.240Z,4.03
2022-10-15T01:03:27.766Z,4.55
2022-10-15T01:05:54.976Z,2.57
2022-10-15T01:08:21.408Z,3.63
2022-10-15T01:10:59.650Z,3.55
2022-10-15T01:13:42.945Z,4.45
2022-10-15T01:16:22.973Z,4.00
2022-10-15T01:18:59.936Z,3.83
2022-10-15T01:21:42.081Z,6.45
2022-10-15T01:24:14.431Z,2.75
2022-10-15T01:27:01.564Z,5.03
2022-10-15T01:29:48.654Z,7.15
2022-10-15T01:32:28.311Z,4.70
2022-10-15T01:35:22.496Z,6.10
2022-10-15T01:37:55.653Z,7.50
2022-10-15T01:41:14.406Z,9.15
2022-10-15T01:44:03.733Z,6.22
2022-10-15T01:46:41.452Z,4.87
2022-10-15T01:49:10.123Z,9.60
2022-10-15T01:51:40.023Z,5.20
2022-10-15T01:54:11.706Z,6.28
2022-10-15T01:56:39.298Z,7.43
2022-10-15T01:59:08.628Z,5.90
2022-10-15T02:01:35.122Z,6.75
2022-10-15T02:04:01.761Z,7.80
2022-10-15T02:06:37.163Z,7.90
2022-10-15T02:09:21.878Z,9.15
2022-10-15T02:12:17.482Z,11.27
2022-10-15T02:14:53.040Z,9.38
2022-10-15T02:17:31.484Z,8.75
2022-10-15T02:20:06.113Z,7.95
2022-10-15T02:22:46.925Z,9.95
2022-10-15T02:25:18.928Z,8.53
2022-10-15T02:27:48.411Z,11.57
2022-10-15T02:30:16.892Z,9.02
2022-10-15T02:32:47.985Z,7.65
2022-10-15T02:35:14.548Z,5.22
2022-10-15T02:37:46.540Z,7.53
2022-10-15T02:40:13.258Z,4.32
2022-10-15T02:42:40.008Z,5.22
2022-10-15T02:45:07.374Z,4.40
2022-10-15T02:47:33.900Z,7.30
2022-10-15T02:50:00.347Z,4.07
2022-10-15T02:52:26.790Z,5.68
2022-10-15T02:54:53.239Z,6.65
2022-10-15T02:57:19.622Z,3.45
2022-10-15T02:59:46.027Z,5.18
2022-10-15T03:02:15.383Z,7.17
2022-10-15T03:04:44.844Z,7.05
2022-10-15T03:07:11.276Z,4.93
2022-10-15T03:09:37.634Z,6.00
2022-10-15T03:12:04.883Z,5.60
2022-10-15T03:14:31.271Z,5.57
2022-10-15T03:16:57.676Z,8.38
2022-10-15T03:19:24.243Z,4.40
2022-10-15T03:21:50.595Z,5.28
2022-10-15T03:24:16.985Z,4.78
2022-10-15T03:26:43.317Z,5.30
2022-10-15T03:29:09.678Z,10.40
2022-10-15T03:31:36.092Z,4.88
2022-10-15T03:34:02.476Z,3.40
2022-10-15T03:36:28.843Z,3.00
2022-10-15T03:38:55.282Z,3.37
2022-10-15T03:41:21.647Z,2.72
2022-10-15T03:43:47.992Z,1.95
2022-10-15T03:46:15.707Z,1.95
2022-10-15T03:48:42.069Z,2.38
2022-10-15T03:51:08.448Z,3.53
2022-10-15T03:53:34.792Z,3.25
2022-10-15T03:56:05.289Z,3.15
2022-10-15T03:58:31.740Z,3.40
2022-10-15T04:00:58.177Z,2.97
2022-10-15T04:03:24.651Z,2.30
2022-10-15T04:05:54.103Z,2.45
2022-10-15T04:08:21.713Z,3.17
2022-10-15T04:10:48.165Z,2.58
2022-10-15T04:13:14.524Z,4.53
2022-10-15T04:15:40.958Z,2.87
2022-10-15T04:18:07.691Z,3.47
2022-10-15T04:20:34.057Z,5.60
2022-10-15T04:23:00.390Z,4.13
2022-10-15T04:25:26.801Z,3.63
2022-10-15T04:27:53.640Z,3.77
2022-10-15T04:30:20.014Z,2.78
2022-10-15T04:32:46.448Z,3.08
2022-10-15T04:35:12.933Z,3.33
2022-10-15T04:37:39.279Z,4.10
2022-10-15T04:40:06.314Z,3.60
2022-10-15T04:42:32.702Z,4.25
2022-10-15T04:44:59.061Z,4.43
2022-10-15T04:47:25.725Z,4.05
2022-10-15T04:49:52.304Z,4.63
2022-10-15T04:52:18.649Z,6.43
2022-10-15T04:54:45.003Z,4.05
2022-10-15T04:57:11.368Z,7.57
2022-10-15T04:59:37.959Z,4.32
2022-10-15T05:02:04.341Z,4.63
2022-10-15T05:04:30.704Z,5.07
2022-10-15T05:06:57.096Z,4.65
2022-10-15T05:09:23.467Z,3.20
2022-10-15T05:11:49.904Z,6.07
2022-10-15T05:14:16.443Z,5.32
2022-10-15T05:16:43.496Z,5.03
2022-10-15T05:19:11.151Z,7.03
2022-10-15T05:21:38.232Z,3.92
2022-10-15T05:24:05.288Z,4.93
2022-10-15T05:26:32.598Z,4.22
2022-10-15T05:29:00.144Z,5.30
2022-10-15T05:31:29.452Z,4.05
2022-10-15T05:33:56.183Z,5.90
2022-10-15T05:36:25.744Z,4.15
2022-10-15T05:38:57.665Z,5.18
2022-10-15T05:41:25.667Z,3.87
2022-10-15T05:43:54.236Z,4.75
2022-10-15T05:46:21.103Z,2.63
2022-10-15T05:48:52.012Z,3.38
2022-10-15T05:51:18.607Z,2.00
2022-10-15T05:53:46.215Z,4.40
2022-10-15T05:56:13.526Z,1.75
2022-10-15T05:58:40.580Z,4.05
2022-10-15T06:01:10.204Z,4.93
2022-10-15T06:03:36.932Z,2.13
2022-10-15T06:06:03.980Z,3.37
2022-10-15T06:08:30.973Z,1.80
2022-10-15T06:11:08.419Z,2.75
2022-10-15T06:13:38.010Z,1.83
2022-10-15T06:16:04.718Z,3.72
2022-10-15T06:18:31.101Z,3.03
2022-10-15T06:20:57.999Z,1.40
2022-10-15T06:23:24.389Z,2.22
2022-10-15T06:25:51.034Z,1.55
2022-10-15T06:28:17.531Z,1.67
2022-10-15T06:30:44.194Z,4.63
2022-10-15T06:35:42.362Z,3.42
2022-10-15T06:38:08.735Z,2.60
2022-10-15T06:40:35.120Z,2.85
2022-10-15T06:43:09.196Z,2.33
2022-10-15T06:45:38.616Z,2.88
2022-10-15T06:48:05.856Z,3.50
2022-10-15T06:50:33.627Z,2.80
2022-10-15T06:53:00.381Z,4.70
2022-10-15T06:55:28.876Z,5.13
2022-10-15T06:57:56.380Z,3.13
2022-10-15T07:00:24.484Z,2.78
2022-10-15T07:02:51.784Z,3.33
2022-10-15T07:05:19.118Z,4.95
2022-10-15T07:07:55.554Z,4.07
2022-10-15T07:10:23.333Z,11.27
2022-10-15T07:12:49.735Z,13.27
2022-10-15T07:15:17.152Z,10.88
2022-10-15T07:17:56.687Z,14.10
2022-10-15T07:20:24.523Z,7.03
2022-10-15T07:22:55.610Z,5.75
2022-10-15T07:25:21.955Z,3.05
2022-10-15T07:27:48.373Z,3.92
2022-10-15T07:30:14.747Z,3.72
2022-10-15T07:32:42.667Z,4.23
2022-10-15T07:35:10.934Z,4.38
2022-10-15T07:37:37.301Z,3.92
2022-10-15T07:40:04.474Z,3.78
2022-10-15T07:42:30.837Z,3.60
2022-10-15T07:44:57.164Z,3.20
2022-10-15T07:47:23.790Z,4.97
2022-10-15T07:49:50.327Z,2.53
2022-10-15T07:52:16.719Z,3.42
2022-10-15T07:54:43.087Z,4.43
2022-10-15T07:57:09.429Z,3.97
2022-10-15T07:59:35.933Z,5.28
2022-10-15T08:02:02.300Z,4.10
2022-10-15T08:04:28.768Z,2.55
2022-10-15T08:06:55.374Z,3.03
2022-10-15T08:09:22.260Z,2.83
2022-10-15T08:11:48.627Z,2.65
2022-10-15T08:14:15.051Z,4.00
2022-10-15T08:16:41.400Z,4.07
2022-10-15T08:19:07.878Z,6.25
2022-10-15T08:21:34.231Z,3.57
2022-10-15T08:24:00.684Z,3.47
2022-10-15T08:26:27.276Z,5.82
2022-10-15T08:28:53.695Z,3.25
2022-10-15T08:31:20.150Z,2.65
2022-10-15T08:33:46.518Z,2.53
2022-10-15T08:36:12.887Z,2.72
2022-10-15T08:38:39.256Z,3.97
2022-10-15T08:41:34.934Z,5.32
2022-10-15T08:44:02.185Z,2.38
2022-10-15T08:46:42.679Z,2.67
2022-10-15T08:49:27.065Z,2.78
2022-10-15T08:52:02.113Z,2.85
2022-10-15T08:54:30.644Z,5.18
2022-10-15T08:57:18.171Z,3.28
2022-10-15T09:00:03.510Z,4.20
2022-10-15T09:02:39.821Z,5.00
2022-10-15T09:05:40.245Z,4.20
2022-10-15T09:08:20.176Z,5.00
2022-10-15T09:10:53.226Z,3.70
2022-10-15T09:13:28.771Z,4.00
2022-10-15T09:16:00.875Z,3.33
2022-10-15T09:18:32.259Z,4.15
2022-10-15T09:21:00.319Z,3.63
2022-10-15T09:23:30.465Z,4.15
2022-10-15T09:26:16.763Z,3.40
2022-10-15T09:28:52.108Z,3.05
2022-10-15T09:31:23.836Z,4.93
2022-10-15T09:34:14.514Z,2.60
2022-10-15T09:36:55.936Z,2.88
2022-10-15T09:39:35.653Z,2.77
2022-10-15T09:42:26.958Z,2.70
2022-10-15T09:44:57.843Z,3.10
2022-10-15T09:47:27.765Z,2.50
2022-10-15T09:49:54.141Z,2.80
2022-10-15T09:52:37.617Z,4.03
2022-10-15T09:55:27.856Z,4.53
2022-10-15T09:57:58.554Z,3.10
2022-10-15T10:00:25.281Z,4.50
2022-10-15T10:03:07.071Z,3.42
2022-10-15T10:05:36.503Z,3.30
2022-10-15T10:08:21.714Z,4.07
2022-10-15T10:10:59.413Z,3.38
2022-10-15T10:13:30.060Z,3.88
2022-10-15T10:16:03.098Z,4.70
2022-10-15T10:18:31.319Z,5.93
2022-10-15T10:21:01.515Z,8.68
2022-10-15T10:23:34.736Z,6.25
2022-10-15T10:26:04.409Z,4.80
2022-10-15T10:28:39.282Z,7.63
2022-10-15T10:31:10.179Z,5.03
2022-10-15T10:33:39.386Z,5.00
2022-10-15T10:38:36.849Z,5.93
2022-10-15T10:41:09.755Z,6.47
2022-10-15T10:43:39.316Z,5.60
2022-10-15T10:46:15.070Z,4.68
2022-10-15T10:48:46.679Z,5.03
2022-10-15T10:51:22.173Z,4.47
2022-10-15T10:53:56.855Z,6.78
2022-10-15T10:56:28.106Z,4.60
2022-10-15T10:59:11.270Z,5.45
2022-10-15T11:01:37.670Z,4.90
2022-10-15T11:06:55.905Z,4.88
2022-10-15T11:09:56.445Z,4.17
2022-10-15T11:12:37.873Z,6.90
2022-10-15T11:15:17.531Z,4.57
2022-10-15T11:18:03.805Z,3.58
2022-10-15T11:20:57.708Z,4.65
2022-10-15T11:23:43.352Z,4.43
2022-10-15T11:26:51.492Z,11.32
2022-10-15T11:29:33.936Z,4.85
2022-10-15T11:32:54.424Z,5.20
2022-10-15T11:36:01.402Z,8.10
2022-10-15T11:38:43.501Z,4.07
2022-10-15T11:41:29.128Z,5.78
2022-10-15T11:44:01.442Z,6.32
2022-10-15T11:46:52.187Z,6.55
2022-10-15T11:49:38.704Z,6.25
2022-10-15T11:52:25.918Z,4.20
2022-10-15T11:55:14.274Z,3.50
2022-10-15T11:57:43.294Z,3.42
2022-10-15T12:00:32.510Z,2.63
2022-10-15T12:03:31.454Z,2.67
2022-10-15T12:06:08.525Z,3.50
2022-10-15T12:08:37.376Z,3.08
2022-10-15T12:11:22.194Z,2.13
2022-10-15T12:14:06.913Z,2.83
2022-10-15T12:16:47.065Z,1.70
2022-10-15T12:19:20.117Z,2.93
2022-10-15T12:21:55.555Z,2.60
2022-10-15T12:24:52.241Z,6.13
2022-10-15T12:27:18.520Z,2.35
2022-10-15T12:29:45.410Z,2.63
2022-10-15T12:32:42.538Z,1.33
2022-10-15T12:35:14.979Z,1.60
2022-10-15T12:37:43.846Z,2.47
2022-10-15T12:40:22.453Z,2.00
2022-10-15T12:43:15.499Z,3.35
2022-10-15T12:45:51.918Z,3.17
2022-10-15T12:48:22.185Z,3.50
2022-10-15T12:50:48.607Z,1.30
2022-10-15T12:53:28.597Z,2.95
2022-10-15T12:56:10.408Z,2.30
2022-10-15T12:58:41.233Z,0.73
2022-10-15T13:01:16.387Z,2.58
2022-10-15T13:03:48.894Z,2.85
2022-10-15T13:06:24.697Z,1.00
2022-10-15T13:09:10.609Z,1.30
2022-10-15T13:11:48.250Z,2.73
2022-10-15T13:14:29.019Z,1.25
2022-10-15T13:16:56.607Z,4.38
2022-10-15T13:19:30.603Z,0.90
2022-10-15T13:22:02.772Z,1.20
2022-10-15T13:24:38.507Z,1.43
2022-10-15T13:27:21.740Z,1.88
2022-10-15T13:30:01.590Z,1.77
2022-10-15T13:32:31.636Z,1.33
2022-10-15T13:34:59.899Z,1.52
2022-10-15T13:37:32.627Z,0.80
2022-10-15T13:40:03.179Z,1.25
2022-10-15T13:42:33.648Z,2.05
2022-10-15T13:45:01.451Z,0.40
2022-10-15T13:47:41.068Z,1.05
2022-10-15T13:50:30.461Z,0.77
2022-10-15T13:53:08.855Z,0.75
2022-10-15T13:55:39.081Z,0.50
2022-10-15T13:58:22.235Z,1.33
2022-10-15T14:00:57.171Z,1.30
2022-10-15T14:03:35.774Z,0.50
2022-10-15T14:06:20.387Z,0.68
2022-10-15T14:08:49.910Z,0.93
2022-10-15T14:11:17.759Z,2.22
2022-10-15T14:13:50.268Z,2.75
2022-10-15T14:16:33.006Z,1.97
2022-10-15T14:19:10.581Z,5.43
2022-10-15T14:21:42.690Z,2.83
2022-10-15T14:24:33.290Z,1.00
2022-10-15T14:27:27.028Z,0.50
2022-10-15T14:29:59.904Z,1.63
2022-10-15T14:32:48.675Z,0.70
2022-10-15T14:35:35.101Z,1.73
2022-10-15T14:38:10.102Z,0.43
2022-10-15T14:40:36.758Z,1.00
2022-10-15T14:43:06.469Z,0.70
2022-10-15T14:45:42.007Z,2.45
2022-10-15T14:48:20.427Z,0.30
2022-10-15T14:50:47.434Z,1.40
2022-10-15T14:53:28.999Z,0.93
2022-10-15T14:56:01.870Z,2.60
2022-10-15T14:58:29.888Z,1.35
2022-10-15T15:01:02.310Z,0.50
2022-10-15T15:03:50.992Z,1.50
2022-10-15T15:06:18.246Z,1.05
2022-10-15T15:08:45.015Z,0.47
2022-10-15T15:11:19.419Z,2.42
2022-10-15T15:13:46.476Z,1.95
2022-10-15T15:16:14.586Z,1.65
2022-10-15T15:18:43.775Z,0.47
2022-10-15T15:21:14.177Z,1.23
2022-10-15T15:23:41.093Z,3.35
2022-10-15T15:26:07.571Z,3.75
2022-10-15T15:28:34.011Z,0.80
2022-10-15T15:31:05.289Z,1.10
2022-10-15T15:33:32.803Z,0.70
2022-10-15T15:36:07.902Z,0.90
2022-10-15T15:41:13.549Z,1.30
2022-10-15T15:43:40.236Z,2.75
2022-10-15T15:46:06.992Z,2.20
2022-10-15T15:48:33.398Z,0.90
2022-10-15T15:51:04.279Z,0.75
2022-10-15T15:53:30.770Z,1.65
2022-10-15T15:55:57.192Z,1.50
2022-10-15T15:58:23.586Z,1.13
2022-10-15T16:00:49.962Z,1.80
2022-10-15T16:03:16.308Z,0.98
2022-10-15T16:05:42.687Z,1.33
2022-10-15T16:08:10.861Z,2.00
2022-10-15T16:10:37.208Z,2.13
2022-10-15T16:13:03.668Z,1.83
2022-10-15T16:15:30.152Z,2.33
2022-10-15T16:17:56.521Z,0.90
2022-10-15T16:20:22.885Z,2.72
2022-10-15T16:22:50.789Z,1.03
2022-10-15T16:25:17.546Z,5.20
2022-10-15T16:27:47.420Z,0.80
2022-10-15T16:30:13.782Z,1.50
2022-10-15T16:32:40.128Z,2.85
2022-10-15T16:35:07.425Z,1.30
2022-10-15T16:37:33.880Z,1.40
2022-10-15T16:40:00.327Z,2.67
2022-10-15T16:42:26.695Z,1.90
2022-10-15T16:44:53.130Z,1.63
2022-10-15T16:47:21.332Z,0.97
2022-10-15T16:49:48.038Z,1.98
2022-10-15T16:52:14.476Z,2.88
2022-10-15T16:54:40.835Z,1.08
2022-10-15T16:57:07.242Z,1.52
2022-10-15T16:59:33.598Z,3.27
2022-10-15T17:02:01.235Z,3.50
2022-10-15T17:04:27.747Z,2.38
2022-10-15T17:06:54.084Z,3.38
2022-10-15T17:09:20.837Z,1.08
2022-10-15T17:11:47.651Z,2.97
2022-10-15T17:14:16.589Z,2.75
2022-10-15T17:16:52.517Z,1.00
2022-10-15T17:19:21.867Z,2.13
2022-10-15T17:21:48.242Z,1.10
2022-10-15T17:24:16.842Z,0.87
2022-10-15T17:26:44.717Z,3.30
2022-10-15T17:29:18.556Z,2.00
2022-10-15T17:31:44.902Z,1.92
2022-10-15T17:34:11.852Z,0.80
2022-10-15T17:36:45.576Z,1.17
2022-10-15T17:39:14.061Z,1.58
2022-10-15T17:41:40.493Z,1.00
2022-10-15T17:44:07.244Z,3.75
2022-10-15T17:46:33.731Z,2.13
2022-10-15T17:49:00.817Z,1.57
2022-10-15T17:51:29.529Z,1.60
2022-10-15T17:53:56.661Z,2.58
2022-10-15T17:56:26.218Z,0.60
2022-10-15T17:58:52.799Z,1.50
2022-10-15T18:01:33.293Z,1.73
2022-10-15T18:04:06.408Z,1.25
2022-10-15T18:06:32.778Z,2.78
2022-10-15T18:09:01.728Z,3.10
2022-10-15T18:11:30.958Z,2.70
2022-10-15T18:13:57.661Z,2.90
2022-10-15T18:16:24.548Z,8.07
2022-10-15T18:18:53.293Z,12.63
2022-10-15T18:21:21.840Z,13.02
2022-10-15T18:23:48.339Z,12.90
2022-10-15T18:26:19.800Z,10.90
2022-10-15T18:28:47.781Z,6.93
2022-10-15T18:31:17.596Z,3.60
2022-10-15T18:33:46.953Z,3.75
2022-10-15T18:36:16.041Z,3.35
2022-10-15T18:38:45.577Z,4.13
2022-10-15T18:41:20.551Z,3.95
2022-10-15T18:43:54.185Z,1.23
2022-10-15T18:46:21.528Z,2.38
2022-10-15T18:48:48.884Z,3.08
2022-10-15T18:51:15.680Z,3.20
2022-10-15T18:53:42.070Z,13.38
2022-10-15T18:56:10.101Z,4.65
2022-10-15T18:58:38.883Z,6.00
2022-10-15T19:01:27.320Z,5.93
2022-10-15T19:03:55.927Z,3.07
2022-10-15T19:06:25.446Z,5.00
2022-10-15T19:08:52.241Z,5.28
2022-10-15T19:11:19.409Z,2.80
2022-10-15T19:13:45.892Z,1.67
2022-10-15T19:16:12.246Z,6.20
2022-10-15T19:18:38.811Z,3.50
2022-10-15T19:21:05.773Z,4.05
2022-10-15T19:23:32.827Z,2.00
2022-10-15T19:25:59.318Z,3.75
2022-10-15T19:28:27.007Z,5.57
2022-10-15T19:31:02.520Z,4.97
2022-10-15T19:33:30.682Z,1.60
2022-10-15T19:35:57.315Z,1.73
2022-10-15T19:38:25.046Z,3.10
2022-10-15T19:40:52.234Z,5.60
2022-10-15T19:43:20.794Z,4.93
2022-10-15T19:45:48.215Z,6.32
2022-10-15T19:48:19.326Z,5.82
2022-10-15T19:50:47.071Z,4.05
2022-10-15T19:53:16.510Z,5.47
2022-10-15T19:55:44.274Z,3.40
2022-10-15T19:58:10.749Z,4.15
2022-10-15T20:00:37.103Z,3.78
2022-10-15T20:03:03.527Z,5.30
2022-10-15T20:05:29.879Z,3.53
2022-10-15T20:07:56.252Z,4.88
2022-10-15T20:10:26.031Z,6.00
2022-10-15T20:12:52.951Z,5.68
2022-10-15T20:15:19.337Z,5.13
2022-10-15T20:17:46.740Z,4.70
2022-10-15T20:20:13.096Z,5.45
2022-10-15T20:22:39.413Z,4.38
2022-10-15T20:25:05.927Z,5.38
2022-10-15T20:27:32.805Z,4.18
2022-10-15T20:29:59.191Z,2.93
2022-10-15T20:32:40.827Z,4.82
2022-10-15T20:35:07.914Z,3.88
2022-10-15T20:37:34.282Z,3.13
2022-10-15T20:40:01.010Z,6.45
2022-10-15T20:42:27.795Z,3.23
2022-10-15T20:44:54.470Z,2.15
2022-10-15T20:47:22.284Z,4.30
2022-10-15T20:49:52.320Z,6.85
2022-10-15T20:52:19.074Z,4.90
2022-10-15T20:54:45.470Z,3.63
2022-10-15T20:57:12.572Z,7.13
2022-10-15T20:59:38.945Z,3.35
2022-10-15T21:02:05.380Z,3.88
2022-10-15T21:04:31.760Z,6.22
2022-10-15T21:06:58.222Z,2.07
2022-10-15T21:09:24.716Z,1.90
2022-10-15T21:11:51.079Z,2.55
2022-10-15T21:14:17.618Z,3.25
2022-10-15T21:16:43.955Z,3.25
2022-10-15T21:19:10.327Z,2.27
2022-10-15T21:21:36.847Z,2.50
2022-10-15T21:24:03.516Z,2.92
2022-10-15T21:26:29.903Z,5.43
2022-10-15T21:28:57.808Z,5.07
2022-10-15T21:31:25.321Z,3.07
2022-10-15T21:33:54.480Z,2.05
2022-10-15T21:36:24.256Z,4.85
2022-10-15T21:39:06.252Z,5.18
2022-10-15T21:41:34.344Z,6.85
2022-10-15T21:44:01.521Z,5.60
2022-10-15T21:46:28.347Z,5.40
2022-10-15T21:48:54.996Z,7.35
2022-10-15T21:51:28.431Z,6.63
2022-10-15T21:53:56.387Z,7.15
2022-10-15T21:56:23.239Z,10.60
2022-10-15T21:58:49.927Z,7.35
2022-10-15T22:01:24.830Z,8.05
2022-10-15T22:03:53.170Z,7.75
2022-10-15T22:06:20.825Z,7.57
2022-10-15T22:08:47.988Z,6.07
2022-10-15T22:11:19.076Z,4.78
2022-10-15T22:13:48.826Z,5.20
2022-10-15T22:16:17.404Z,5.10
2022-10-15T22:18:44.388Z,3.75
2022-10-15T22:21:31.846Z,6.80
2022-10-15T22:24:01.040Z,8.63
2022-10-15T22:26:32.291Z,5.88
2022-10-15T22:29:00.651Z,7.18
2022-10-15T22:31:28.331Z,5.40
2022-10-15T22:33:55.194Z,5.57
2022-10-15T22:36:24.295Z,5.60
2022-10-15T22:41:34.014Z,3.60
2022-10-15T22:44:00.712Z,6.22
2022-10-15T22:46:27.580Z,3.33
2022-10-15T22:49:00.646Z,4.95
2022-10-15T22:51:27.403Z,4.20
2022-10-15T22:53:55.552Z,5.88
2022-10-15T22:56:22.175Z,2.88
2022-10-15T22:58:48.935Z,4.10
2022-10-15T23:01:20.970Z,4.45
2022-10-15T23:03:50.904Z,1.80
2022-10-15T23:06:18.568Z,6.63
2022-10-15T23:08:47.254Z,4.63
2022-10-15T23:11:23.870Z,3.60
2022-10-15T23:13:56.026Z,6.07
2022-10-15T23:16:28.387Z,7.40
2022-10-15T23:18:57.799Z,2.90
2022-10-15T23:21:34.459Z,5.38
2022-10-15T23:24:01.887Z,2.50
2022-10-15T23:29:01.778Z,2.70
2022-10-15T23:31:34.526Z,2.58
2022-10-15T23:34:02.278Z,3.78
2022-10-15T23:36:30.070Z,6.30
2022-10-15T23:38:59.421Z,2.33
2022-10-15T23:41:27.900Z,3.42
2022-10-15T23:43:54.909Z,4.75
2022-10-15T23:46:21.339Z,4.18
2022-10-15T23:48:48.294Z,2.57
2022-10-15T23:51:26.437Z,2.20
2022-10-15T23:53:54.827Z,2.58
2022-10-15T23:56:22.383Z,2.67
2022-10-15T23:58:50.240Z,2.55
